PWSweather.com
Personal Weather Stations
Station Observations

MakarauRodneyNZ

Lat: -36.52421, Lon: 174.47572

Elevation: 606

Station Type: Davis VP2

http://kaiparaweather.dynu.net/index.php

High Low Average
Temperature 71.0°F21.7°C 59.8°F15.4°C 63.7°F17.6°C
Dew Point 64.5°F18.1°C 57.8°F14.3°C 60.1°F15.6°C
Winds 13.8 mph 22.2 kmh Calm Calm 3.0 mph SW4.8 kmh SW
Wind Gusts 26.5 mph42.6 kmh -- 7.0 mph11.3 kmh
Humidity 96% 68% 89%
Pressure 29.66 in1004.4 mb 29.55 in1000.7 mb -
Precipitation 1.81 in46.0 mm - -
Hour Temp Dew Point Humidity Winds Wind Gusts Pressure Precip Precip Rate Daily Precip Total
12:00 AM 63.9°F17.7°C 61.5°F16.4°C 92% Calm Calm -- 29.66 in1004.4 mb - 0.02 in0.5 mm 0.09 in2.3 mm
12:10 AM 63.7°F17.6°C 61.6°F16.4°C 93% Calm Calm -- 29.65 in1004.1 mb - 0.27 in6.9 mm 0.35 in8.9 mm
12:20 AM 62.8°F17.1°C 60.1°F15.6°C 91% Calm Calm -- 29.66 in1004.4 mb - 0.02 in0.5 mm 0.36 in9.1 mm
12:40 AM 60.7°F15.9°C 58.4°F14.7°C 92% 2.3 mph WSW3.7 kmh WSW 12.7 mph20.4 kmh 29.65 in1004.1 mb - 0.35 in8.9 mm 0.72 in18.3 mm
12:50 AM 59.8°F15.4°C 57.8°F14.3°C 93% 5.8 mph SW9.3 kmh SW 11.5 mph18.5 kmh 29.65 in1004.1 mb - 0.03 in0.8 mm 0.76 in19.3 mm
01:00 AM 59.8°F15.4°C 58.1°F14.5°C 94% 4.6 mph SW7.4 kmh SW 8.1 mph13.0 kmh 29.64 in1003.7 mb - 0.05 in1.3 mm 0.80 in20.3 mm
01:10 AM 60.0°F15.6°C 58.3°F14.6°C 94% Calm Calm -- 29.65 in1004.1 mb - 0.03 in0.8 mm 0.82 in20.8 mm
01:20 AM 60.2°F15.7°C 58.5°F14.7°C 94% Calm Calm -- 29.64 in1003.7 mb - 0.02 in0.5 mm 0.84 in21.3 mm
01:30 AM 60.4°F15.8°C 58.7°F14.8°C 94% Calm Calm -- 29.64 in1003.7 mb - 0.00 in0.0 mm 0.84 in21.3 mm
01:40 AM 60.6°F15.9°C 58.9°F14.9°C 94% Calm Calm -- 29.64 in1003.7 mb - 0.04 in1.0 mm 0.87 in22.1 mm
01:50 AM 60.9°F16.1°C 59.1°F15.1°C 94% Calm Calm -- 29.64 in1003.7 mb - 0.04 in1.0 mm 0.91 in23.1 mm
02:00 AM 61.0°F16.1°C 59.3°F15.2°C 94% Calm Calm -- 29.63 in1003.4 mb - 0.06 in1.5 mm 0.95 in24.1 mm
02:10 AM 61.0°F16.1°C 59.3°F15.2°C 94% Calm Calm -- 29.62 in1003.0 mb - 0.05 in1.3 mm 0.99 in25.1 mm
02:20 AM 61.1°F16.2°C 59.4°F15.2°C 94% Calm Calm -- 29.61 in1002.7 mb - 0.02 in0.5 mm 1.02 in25.9 mm
02:30 AM 61.3°F16.3°C 59.6°F15.3°C 94% Calm Calm -- 29.62 in1003.0 mb - 0.01 in0.3 mm 1.02 in25.9 mm
02:40 AM 61.4°F16.3°C 60.0°F15.6°C 95% Calm Calm -- 29.61 in1002.7 mb - 0.00 in0.0 mm 1.02 in25.9 mm
02:50 AM 61.5°F16.4°C 60.1°F15.6°C 95% Calm Calm -- 29.61 in1002.7 mb - 0.00 in0.0 mm 1.02 in25.9 mm
03:00 AM 61.6°F16.4°C 60.1°F15.6°C 95% Calm Calm -- 29.61 in1002.7 mb - 0.00 in0.0 mm 1.02 in25.9 mm
03:10 AM 61.4°F16.3°C 60.0°F15.6°C 95% Calm Calm -- 29.60 in1002.4 mb - 0.00 in0.0 mm 1.02 in25.9 mm
03:20 AM 61.4°F16.3°C 60.0°F15.6°C 95% Calm Calm -- 29.60 in1002.4 mb - 0.00 in0.0 mm 1.02 in25.9 mm
03:30 AM 61.6°F16.4°C 60.2°F15.7°C 95% Calm Calm -- 29.59 in1002.0 mb - 0.00 in0.0 mm 1.02 in25.9 mm
03:40 AM 61.7°F16.5°C 60.2°F15.7°C 95% Calm Calm -- 29.59 in1002.0 mb - 0.00 in0.0 mm 1.02 in25.9 mm
03:50 AM 61.4°F16.3°C 59.9°F15.5°C 95% Calm Calm -- 29.59 in1002.0 mb - 0.00 in0.0 mm 1.02 in25.9 mm
04:00 AM 61.0°F16.1°C 59.3°F15.2°C 94% Calm Calm -- 29.59 in1002.0 mb - 0.01 in0.3 mm 1.03 in26.2 mm
04:10 AM 61.1°F16.2°C 59.7°F15.4°C 95% Calm Calm -- 29.59 in1002.0 mb - 0.00 in0.0 mm 1.03 in26.2 mm
04:20 AM 61.3°F16.3°C 59.9°F15.5°C 95% Calm Calm -- 29.59 in1002.0 mb - 0.03 in0.8 mm 1.06 in26.9 mm
04:30 AM 61.5°F16.4°C 60.0°F15.6°C 95% Calm Calm -- 29.59 in1002.0 mb - 0.02 in0.5 mm 1.08 in27.4 mm
04:40 AM 61.6°F16.4°C 60.2°F15.7°C 95% Calm Calm -- 29.58 in1001.7 mb - 0.08 in2.0 mm 1.16 in29.5 mm
04:50 AM 61.7°F16.5°C 60.3°F15.7°C 95% Calm Calm -- 29.58 in1001.7 mb - 0.03 in0.8 mm 1.18 in30.0 mm
05:00 AM 61.8°F16.6°C 60.4°F15.8°C 95% Calm Calm -- 29.58 in1001.7 mb - 0.02 in0.5 mm 1.20 in30.5 mm
05:10 AM 61.8°F16.6°C 60.4°F15.8°C 95% Calm Calm -- 29.58 in1001.7 mb - 0.02 in0.5 mm 1.21 in30.7 mm
05:20 AM 61.8°F16.6°C 60.3°F15.7°C 95% Calm Calm -- 29.58 in1001.7 mb - 0.00 in0.0 mm 1.21 in30.7 mm
05:30 AM 61.8°F16.6°C 60.4°F15.8°C 95% Calm Calm -- 29.59 in1002.0 mb - 0.01 in0.3 mm 1.22 in31.0 mm
05:40 AM 61.8°F16.6°C 60.4°F15.8°C 95% Calm Calm -- 29.59 in1002.0 mb - 0.00 in0.0 mm 1.22 in31.0 mm
05:50 AM 61.7°F16.5°C 60.3°F15.7°C 95% Calm Calm -- 29.59 in1002.0 mb - 0.01 in0.3 mm 1.23 in31.2 mm
06:00 AM 61.5°F16.4°C 60.0°F15.6°C 95% Calm Calm -- 29.59 in1002.0 mb - 0.00 in0.0 mm 1.23 in31.2 mm
06:10 AM 61.4°F16.3°C 60.0°F15.6°C 95% Calm Calm -- 29.59 in1002.0 mb - 0.00 in0.0 mm 1.23 in31.2 mm
06:20 AM 61.3°F16.3°C 59.9°F15.5°C 95% Calm Calm -- 29.59 in1002.0 mb - 0.02 in0.5 mm 1.24 in31.5 mm
06:30 AM 61.2°F16.2°C 59.7°F15.4°C 95% Calm Calm -- 29.59 in1002.0 mb - 0.03 in0.8 mm 1.28 in32.5 mm
06:40 AM 61.1°F16.2°C 59.6°F15.3°C 95% Calm Calm -- 29.59 in1002.0 mb - 0.01 in0.3 mm 1.28 in32.5 mm
06:50 AM 61.1°F16.2°C 59.7°F15.4°C 95% Calm Calm -- 29.59 in1002.0 mb - 0.00 in0.0 mm 1.28 in32.5 mm
07:00 AM 61.4°F16.3°C 60.0°F15.6°C 95% Calm Calm -- 29.59 in1002.0 mb - 0.05 in1.3 mm 1.32 in33.5 mm
07:10 AM 61.5°F16.4°C 60.0°F15.6°C 95% Calm Calm -- 29.59 in1002.0 mb - 0.06 in1.5 mm 1.35 in34.3 mm
07:20 AM 61.5°F16.4°C 60.1°F15.6°C 95% Calm Calm -- 29.60 in1002.4 mb - 0.01 in0.3 mm 1.36 in34.5 mm
07:30 AM 61.6°F16.4°C 60.2°F15.7°C 95% 1.2 mph N1.9 kmh N 3.5 mph5.6 kmh 29.59 in1002.0 mb - 0.00 in0.0 mm 1.36 in34.5 mm
07:40 AM 61.8°F16.6°C 60.4°F15.8°C 95% Calm Calm -- 29.59 in1002.0 mb - 0.01 in0.3 mm 1.37 in34.8 mm
07:50 AM 62.0°F16.7°C 60.6°F15.9°C 95% 1.2 mph ENE1.9 kmh ENE 2.3 mph3.7 kmh 29.59 in1002.0 mb - 0.00 in0.0 mm 1.37 in34.8 mm
08:00 AM 62.3°F16.8°C 61.1°F16.2°C 96% Calm Calm -- 29.59 in1002.0 mb - 0.00 in0.0 mm 1.37 in34.8 mm
08:10 AM 62.5°F16.9°C 61.1°F16.2°C 95% Calm Calm 2.3 mph3.7 kmh 29.59 in1002.0 mb - 0.00 in0.0 mm 1.37 in34.8 mm
08:20 AM 62.5°F16.9°C 61.3°F16.3°C 96% Calm Calm -- 29.59 in1002.0 mb - 0.01 in0.3 mm 1.38 in35.1 mm
08:30 AM 62.7°F17.1°C 61.2°F16.2°C 95% Calm Calm -- 29.59 in1002.0 mb - 0.01 in0.3 mm 1.39 in35.3 mm
08:40 AM 62.9°F17.2°C 61.8°F16.6°C 96% 2.3 mph NE3.7 kmh NE 4.6 mph7.4 kmh 29.58 in1001.7 mb - 0.00 in0.0 mm 1.39 in35.3 mm
08:50 AM 62.8°F17.1°C 61.3°F16.3°C 95% Calm Calm -- 29.58 in1001.7 mb - 0.01 in0.3 mm 1.39 in35.3 mm
09:00 AM 62.3°F16.8°C 60.8°F16.0°C 95% 5.8 mph W9.3 kmh W 10.4 mph16.7 kmh 29.59 in1002.0 mb - 0.21 in5.3 mm 1.61 in40.9 mm
09:10 AM 62.2°F16.8°C 60.7°F15.9°C 95% 6.9 mph NW11.1 kmh NW 10.4 mph16.7 kmh 29.59 in1002.0 mb - 0.04 in1.0 mm 1.63 in41.4 mm
09:20 AM 64.1°F17.8°C 62.9°F17.2°C 96% 9.2 mph NW14.8 kmh NW 16.1 mph25.9 kmh 29.59 in1002.0 mb - 0.00 in0.0 mm 1.63 in41.4 mm
09:30 AM 64.1°F17.8°C 63.0°F17.2°C 96% Calm Calm 3.5 mph5.6 kmh 29.59 in1002.0 mb - 0.00 in0.0 mm 1.63 in41.4 mm
09:40 AM 64.2°F17.9°C 63.0°F17.2°C 96% 1.2 mph WSW1.9 kmh WSW 9.2 mph14.8 kmh 29.59 in1002.0 mb - 0.00 in0.0 mm 1.63 in41.4 mm
09:50 AM 64.0°F17.8°C 62.6°F17.0°C 95% 6.9 mph WNW11.1 kmh WNW 11.5 mph18.5 kmh 29.59 in1002.0 mb - 0.01 in0.3 mm 1.64 in41.7 mm
10:00 AM 63.0°F17.2°C 61.5°F16.4°C 95% 4.6 mph WSW7.4 kmh WSW 8.1 mph13.0 kmh 29.60 in1002.4 mb - 0.01 in0.3 mm 1.64 in41.7 mm
10:10 AM 62.6°F17.0°C 61.2°F16.2°C 95% Calm Calm 8.1 mph13.0 kmh 29.60 in1002.4 mb - 0.01 in0.3 mm 1.65 in41.9 mm
10:20 AM 62.4°F16.9°C 61.0°F16.1°C 95% Calm Calm -- 29.60 in1002.4 mb - 0.00 in0.0 mm 1.65 in41.9 mm
10:30 AM 63.4°F17.4°C 61.9°F16.6°C 95% Calm Calm -- 29.59 in1002.0 mb - 0.00 in0.0 mm 1.65 in41.9 mm
10:40 AM 65.5°F18.6°C 64.0°F17.8°C 95% Calm Calm 4.6 mph7.4 kmh 29.59 in1002.0 mb - 0.00 in0.0 mm 1.65 in41.9 mm
10:50 AM 66.0°F18.9°C 64.5°F18.1°C 95% Calm Calm -- 29.59 in1002.0 mb - 0.00 in0.0 mm 1.65 in41.9 mm
11:00 AM 66.1°F18.9°C 63.7°F17.6°C 92% 11.5 mph W18.5 kmh W 26.5 mph42.6 kmh 29.59 in1002.0 mb - 0.01 in0.3 mm 1.65 in41.9 mm
11:10 AM 64.1°F17.8°C 62.0°F16.7°C 93% 6.9 mph WNW11.1 kmh WNW 17.3 mph27.8 kmh 29.60 in1002.4 mb - 0.05 in1.3 mm 1.70 in43.2 mm
11:20 AM 64.9°F18.3°C 62.8°F17.1°C 93% 2.3 mph WSW3.7 kmh WSW 5.8 mph9.3 kmh 29.60 in1002.4 mb - 0.00 in0.0 mm 1.70 in43.2 mm
11:30 AM 65.3°F18.5°C 62.9°F17.2°C 92% 4.6 mph WSW7.4 kmh WSW 9.2 mph14.8 kmh 29.60 in1002.4 mb - 0.00 in0.0 mm 1.70 in43.2 mm
11:40 AM 67.0°F19.4°C 63.9°F17.7°C 90% 5.8 mph W9.3 kmh W 15.0 mph24.1 kmh 29.60 in1002.4 mb - 0.00 in0.0 mm 1.70 in43.2 mm
11:50 AM 67.8°F19.9°C 63.8°F17.7°C 87% 4.6 mph W7.4 kmh W 11.5 mph18.5 kmh 29.59 in1002.0 mb - 0.00 in0.0 mm 1.70 in43.2 mm
12:00 PM 68.6°F20.3°C 63.9°F17.7°C 85% Calm Calm 3.5 mph5.6 kmh 29.59 in1002.0 mb - 0.00 in0.0 mm 1.70 in43.2 mm
12:10 PM 69.8°F21.0°C 62.6°F17.0°C 78% 4.6 mph WNW7.4 kmh WNW 13.8 mph22.2 kmh 29.59 in1002.0 mb - 0.00 in0.0 mm 1.70 in43.2 mm
12:20 PM 70.0°F21.1°C 61.0°F16.1°C 73% 11.5 mph W18.5 kmh W 15.0 mph24.1 kmh 29.59 in1002.0 mb - 0.00 in0.0 mm 1.70 in43.2 mm
12:30 PM 70.0°F21.1°C 61.3°F16.3°C 74% 5.8 mph W9.3 kmh W 10.4 mph16.7 kmh 29.59 in1002.0 mb - 0.00 in0.0 mm 1.70 in43.2 mm
12:40 PM 70.0°F21.1°C 61.3°F16.3°C 74% 5.8 mph W9.3 kmh W 12.7 mph20.4 kmh 29.59 in1002.0 mb - 0.00 in0.0 mm 1.70 in43.2 mm
12:50 PM 69.8°F21.0°C 61.1°F16.2°C 74% 3.5 mph W5.6 kmh W 13.8 mph22.2 kmh 29.59 in1002.0 mb - 0.00 in0.0 mm 1.70 in43.2 mm
01:00 PM 70.2°F21.2°C 61.9°F16.6°C 75% 8.1 mph WNW13.0 kmh WNW 16.1 mph25.9 kmh 29.59 in1002.0 mb - 0.00 in0.0 mm 1.70 in43.2 mm
01:10 PM 70.8°F21.6°C 61.7°F16.5°C 73% 4.6 mph W7.4 kmh W 15.0 mph24.1 kmh 29.58 in1001.7 mb - 0.00 in0.0 mm 1.70 in43.2 mm
01:20 PM 71.0°F21.7°C 61.9°F16.6°C 73% 9.2 mph NW14.8 kmh NW 17.3 mph27.8 kmh 29.58 in1001.7 mb - 0.00 in0.0 mm 1.70 in43.2 mm
01:30 PM 69.7°F20.9°C 62.1°F16.7°C 77% 2.3 mph W3.7 kmh W 17.3 mph27.8 kmh 29.58 in1001.7 mb - 0.00 in0.0 mm 1.70 in43.2 mm
01:40 PM 69.2°F20.7°C 61.3°F16.3°C 76% 6.9 mph W11.1 kmh W 19.6 mph31.5 kmh 29.58 in1001.7 mb - 0.00 in0.0 mm 1.70 in43.2 mm
01:50 PM 69.5°F20.8°C 59.6°F15.3°C 71% 9.2 mph W14.8 kmh W 15.0 mph24.1 kmh 29.58 in1001.7 mb - 0.00 in0.0 mm 1.70 in43.2 mm
02:00 PM 70.5°F21.4°C 60.2°F15.7°C 70% 10.4 mph NW16.7 kmh NW 16.1 mph25.9 kmh 29.58 in1001.7 mb - 0.00 in0.0 mm 1.70 in43.2 mm
02:10 PM 70.8°F21.6°C 61.3°F16.3°C 72% 6.9 mph W11.1 kmh W 13.8 mph22.2 kmh 29.57 in1001.4 mb - 0.00 in0.0 mm 1.70 in43.2 mm
02:20 PM 70.8°F21.6°C 61.3°F16.3°C 72% 3.5 mph WSW5.6 kmh WSW 5.8 mph9.3 kmh 29.57 in1001.4 mb - 0.00 in0.0 mm 1.70 in43.2 mm
02:30 PM 70.2°F21.2°C 60.3°F15.7°C 71% 5.8 mph W9.3 kmh W 16.1 mph25.9 kmh 29.57 in1001.4 mb - 0.00 in0.0 mm 1.70 in43.2 mm
02:40 PM 69.3°F20.7°C 62.1°F16.7°C 78% 8.1 mph NW13.0 kmh NW 15.0 mph24.1 kmh 29.57 in1001.4 mb - 0.00 in0.0 mm 1.70 in43.2 mm
02:50 PM 69.5°F20.8°C 60.5°F15.8°C 73% 11.5 mph WNW18.5 kmh WNW 15.0 mph24.1 kmh 29.57 in1001.4 mb - 0.00 in0.0 mm 1.70 in43.2 mm
03:00 PM 69.7°F20.9°C 58.7°F14.8°C 68% 8.1 mph WNW13.0 kmh WNW 15.0 mph24.1 kmh 29.56 in1001.0 mb - 0.00 in0.0 mm 1.70 in43.2 mm
03:10 PM 70.5°F21.4°C 59.4°F15.2°C 68% 5.8 mph W9.3 kmh W 21.9 mph35.2 kmh 29.56 in1001.0 mb - 0.00 in0.0 mm 1.70 in43.2 mm
03:20 PM 70.0°F21.1°C 59.4°F15.2°C 69% 8.1 mph NW13.0 kmh NW 13.8 mph22.2 kmh 29.56 in1001.0 mb - 0.00 in0.0 mm 1.70 in43.2 mm
03:30 PM 69.0°F20.6°C 58.0°F14.4°C 68% 9.2 mph WNW14.8 kmh WNW 12.7 mph20.4 kmh 29.56 in1001.0 mb - 0.00 in0.0 mm 1.70 in43.2 mm
03:40 PM 69.1°F20.6°C 58.5°F14.7°C 69% 3.5 mph WSW5.6 kmh WSW 16.1 mph25.9 kmh 29.56 in1001.0 mb - 0.00 in0.0 mm 1.70 in43.2 mm
03:50 PM 69.2°F20.7°C 58.6°F14.8°C 69% 9.2 mph NW14.8 kmh NW 19.6 mph31.5 kmh 29.56 in1001.0 mb - 0.00 in0.0 mm 1.70 in43.2 mm
04:00 PM 69.0°F20.6°C 59.2°F15.1°C 71% 3.5 mph NW5.6 kmh NW 13.8 mph22.2 kmh 29.56 in1001.0 mb - 0.00 in0.0 mm 1.70 in43.2 mm
04:10 PM 68.6°F20.3°C 58.4°F14.7°C 70% 4.6 mph W7.4 kmh W 9.2 mph14.8 kmh 29.55 in1000.7 mb - 0.00 in0.0 mm 1.70 in43.2 mm
04:20 PM 69.4°F20.8°C 59.2°F15.1°C 70% 6.9 mph WNW11.1 kmh WNW 10.4 mph16.7 kmh 29.55 in1000.7 mb - 0.00 in0.0 mm 1.70 in43.2 mm
04:30 PM 68.8°F20.4°C 58.6°F14.8°C 70% 2.3 mph NNW3.7 kmh NNW 9.2 mph14.8 kmh 29.55 in1000.7 mb - 0.00 in0.0 mm 1.70 in43.2 mm
04:40 PM 68.0°F20.0°C 58.2°F14.6°C 71% 2.3 mph NW3.7 kmh NW 13.8 mph22.2 kmh 29.55 in1000.7 mb - 0.00 in0.0 mm 1.70 in43.2 mm
04:50 PM 67.0°F19.4°C 58.0°F14.4°C 73% 9.2 mph WNW14.8 kmh WNW 12.7 mph20.4 kmh 29.55 in1000.7 mb - 0.00 in0.0 mm 1.70 in43.2 mm
05:00 PM 65.9°F18.8°C 58.5°F14.7°C 77% 5.8 mph W9.3 kmh W 17.3 mph27.8 kmh 29.55 in1000.7 mb - 0.00 in0.0 mm 1.70 in43.2 mm
05:10 PM 62.7°F17.1°C 58.1°F14.5°C 85% 1.2 mph WSW1.9 kmh WSW 5.8 mph9.3 kmh 29.55 in1000.7 mb - 0.05 in1.3 mm 1.75 in44.5 mm
05:20 PM 62.0°F16.7°C 58.7°F14.8°C 89% Calm Calm -- 29.55 in1000.7 mb - 0.00 in0.0 mm 1.75 in44.5 mm
05:30 PM 62.1°F16.7°C 59.4°F15.2°C 91% Calm Calm -- 29.55 in1000.7 mb - 0.00 in0.0 mm 1.75 in44.5 mm
05:40 PM 61.9°F16.6°C 59.2°F15.1°C 91% 5.8 mph NNW9.3 kmh NNW 6.9 mph11.1 kmh 29.56 in1001.0 mb - 0.00 in0.0 mm 1.75 in44.5 mm
05:50 PM 62.3°F16.8°C 59.3°F15.2°C 90% 1.2 mph NW1.9 kmh NW -- 29.56 in1001.0 mb - 0.00 in0.0 mm 1.75 in44.5 mm
06:00 PM 62.1°F16.7°C 59.1°F15.1°C 90% 1.2 mph WSW1.9 kmh WSW 9.2 mph14.8 kmh 29.56 in1001.0 mb - 0.00 in0.0 mm 1.75 in44.5 mm
06:10 PM 62.1°F16.7°C 58.8°F14.9°C 89% Calm Calm -- 29.56 in1001.0 mb - 0.00 in0.0 mm 1.75 in44.5 mm
06:20 PM 61.6°F16.4°C 58.1°F14.5°C 88% 9.2 mph NW14.8 kmh NW 15.0 mph24.1 kmh 29.57 in1001.4 mb - 0.01 in0.3 mm 1.76 in44.7 mm
06:30 PM 61.2°F16.2°C 57.9°F14.4°C 89% 5.8 mph NW9.3 kmh NW 10.4 mph16.7 kmh 29.57 in1001.4 mb - 0.00 in0.0 mm 1.76 in44.7 mm
06:40 PM 61.4°F16.3°C 58.5°F14.7°C 90% Calm Calm -- 29.57 in1001.4 mb - 0.00 in0.0 mm 1.76 in44.7 mm
06:50 PM 61.7°F16.5°C 58.7°F14.8°C 90% 2.3 mph W3.7 kmh W 5.8 mph9.3 kmh 29.57 in1001.4 mb - 0.00 in0.0 mm 1.76 in44.7 mm
07:00 PM 61.8°F16.6°C 58.8°F14.9°C 90% Calm Calm -- 29.57 in1001.4 mb - 0.00 in0.0 mm 1.76 in44.7 mm
07:10 PM 61.8°F16.6°C 58.8°F14.9°C 90% 5.8 mph NW9.3 kmh NW 11.5 mph18.5 kmh 29.57 in1001.4 mb - 0.00 in0.0 mm 1.76 in44.7 mm
07:20 PM 61.9°F16.6°C 58.6°F14.8°C 89% 3.5 mph W5.6 kmh W 11.5 mph18.5 kmh 29.57 in1001.4 mb - 0.00 in0.0 mm 1.76 in44.7 mm
07:30 PM 61.9°F16.6°C 58.7°F14.8°C 89% 8.1 mph W13.0 kmh W 13.8 mph22.2 kmh 29.57 in1001.4 mb - 0.01 in0.3 mm 1.76 in44.7 mm
07:40 PM 61.7°F16.5°C 58.4°F14.7°C 89% 5.8 mph W9.3 kmh W 12.7 mph20.4 kmh 29.57 in1001.4 mb - 0.00 in0.0 mm 1.76 in44.7 mm
07:50 PM 61.7°F16.5°C 58.4°F14.7°C 89% 3.5 mph WNW5.6 kmh WNW 16.1 mph25.9 kmh 29.57 in1001.4 mb - 0.00 in0.0 mm 1.76 in44.7 mm
08:00 PM 61.8°F16.6°C 58.6°F14.8°C 89% 6.9 mph WNW11.1 kmh WNW 17.3 mph27.8 kmh 29.58 in1001.7 mb - 0.00 in0.0 mm 1.76 in44.7 mm
08:10 PM 61.8°F16.6°C 58.6°F14.8°C 89% 4.6 mph W7.4 kmh W 9.2 mph14.8 kmh 29.58 in1001.7 mb - 0.00 in0.0 mm 1.76 in44.7 mm
08:20 PM 62.0°F16.7°C 58.7°F14.8°C 89% 1.2 mph W1.9 kmh W 8.1 mph13.0 kmh 29.57 in1001.4 mb - 0.00 in0.0 mm 1.76 in44.7 mm
08:30 PM 62.2°F16.8°C 58.9°F14.9°C 89% 1.2 mph WSW1.9 kmh WSW 17.3 mph27.8 kmh 29.58 in1001.7 mb - 0.00 in0.0 mm 1.76 in44.7 mm
08:40 PM 62.2°F16.8°C 58.9°F14.9°C 89% 4.6 mph W7.4 kmh W 10.4 mph16.7 kmh 29.58 in1001.7 mb - 0.00 in0.0 mm 1.76 in44.7 mm
08:50 PM 62.3°F16.8°C 59.0°F15.0°C 89% 4.6 mph WNW7.4 kmh WNW 9.2 mph14.8 kmh 29.58 in1001.7 mb - 0.00 in0.0 mm 1.76 in44.7 mm
09:00 PM 62.4°F16.9°C 59.1°F15.1°C 89% 6.9 mph WNW11.1 kmh WNW 10.4 mph16.7 kmh 29.58 in1001.7 mb - 0.00 in0.0 mm 1.76 in44.7 mm
09:10 PM 62.0°F16.7°C 58.8°F14.9°C 89% 1.2 mph W1.9 kmh W 6.9 mph11.1 kmh 29.59 in1002.0 mb - 0.00 in0.0 mm 1.76 in44.7 mm
09:20 PM 62.0°F16.7°C 58.7°F14.8°C 89% 4.6 mph W7.4 kmh W 10.4 mph16.7 kmh 29.59 in1002.0 mb - 0.00 in0.0 mm 1.76 in44.7 mm
09:30 PM 62.2°F16.8°C 59.2°F15.1°C 90% 8.1 mph WNW13.0 kmh WNW 12.7 mph20.4 kmh 29.59 in1002.0 mb - 0.02 in0.5 mm 1.79 in45.5 mm
09:40 PM 61.8°F16.6°C 58.8°F14.9°C 90% 8.1 mph NW13.0 kmh NW 11.5 mph18.5 kmh 29.59 in1002.0 mb - 0.04 in1.0 mm 1.81 in46.0 mm
09:50 PM 61.2°F16.2°C 58.6°F14.8°C 91% 2.3 mph WNW3.7 kmh WNW 9.2 mph14.8 kmh 29.59 in1002.0 mb - 0.00 in0.0 mm 1.81 in46.0 mm
10:00 PM 61.2°F16.2°C 58.6°F14.8°C 91% 4.6 mph WSW7.4 kmh WSW 10.4 mph16.7 kmh 29.59 in1002.0 mb - 0.00 in0.0 mm 1.81 in46.0 mm
10:10 PM 61.4°F16.3°C 59.0°F15.0°C 92% 5.8 mph WNW9.3 kmh WNW 11.5 mph18.5 kmh 29.59 in1002.0 mb - 0.00 in0.0 mm 1.81 in46.0 mm
10:20 PM 61.6°F16.4°C 59.3°F15.2°C 92% 2.3 mph WSW3.7 kmh WSW 10.4 mph16.7 kmh 29.59 in1002.0 mb - 0.00 in0.0 mm 1.81 in46.0 mm
10:30 PM 61.8°F16.6°C 59.7°F15.4°C 93% 2.3 mph NW3.7 kmh NW 5.8 mph9.3 kmh 29.59 in1002.0 mb - 0.00 in0.0 mm 1.81 in46.0 mm
10:40 PM 61.8°F16.6°C 59.8°F15.4°C 93% 5.8 mph W9.3 kmh W 11.5 mph18.5 kmh 29.59 in1002.0 mb - 0.00 in0.0 mm 1.81 in46.0 mm
10:50 PM 61.8°F16.6°C 59.8°F15.4°C 93% 4.6 mph W7.4 kmh W 9.2 mph14.8 kmh 29.59 in1002.0 mb - 0.00 in0.0 mm 1.81 in46.0 mm
11:00 PM 62.0°F16.7°C 59.9°F15.5°C 93% 4.6 mph WSW7.4 kmh WSW 8.1 mph13.0 kmh 29.59 in1002.0 mb - 0.00 in0.0 mm 1.93 in49.0 mm
11:10 PM 62.0°F16.7°C 60.0°F15.6°C 93% 3.5 mph WSW5.6 kmh WSW 8.1 mph13.0 kmh 29.59 in1002.0 mb - 0.00 in0.0 mm 1.93 in49.0 mm
11:20 PM 62.1°F16.7°C 60.1°F15.6°C 93% 9.2 mph WNW14.8 kmh WNW 12.7 mph20.4 kmh 29.59 in1002.0 mb - 0.00 in0.0 mm 1.93 in49.0 mm
11:30 PM 62.2°F16.8°C 60.2°F15.7°C 93% 5.8 mph W9.3 kmh W 12.7 mph20.4 kmh 29.58 in1001.7 mb - 0.00 in0.0 mm 1.93 in49.0 mm
11:40 PM 62.3°F16.8°C 60.2°F15.7°C 93% 13.8 mph WNW22.2 kmh WNW 24.2 mph38.9 kmh 29.58 in1001.7 mb - 0.00 in0.0 mm 1.93 in49.0 mm
11:50 PM 61.5°F16.4°C 59.2°F15.1°C 92% 5.8 mph WNW9.3 kmh WNW 10.4 mph16.7 kmh 29.58 in1001.7 mb - 0.01 in0.3 mm 0.01 in0.3 mm